Главная страница
METAR-TAF:

METAR-TAF

Аэропорты :

Ставангер, Норвегия

широта: 58-53N, долгота: 005-38E, высота над уровнем моря: 0 м

Текущие метеонаблюдения

Эта сводка был подготовлена 20 минут назад, в 10:20 UTC
Ветер 9 Узел от северный
Температура 17°C
Влажность 72%
Давление 1023 hPa
Видимость 10 км и более
небольшая облачность на высоте 1800 фута

METAR: ENZV 091020Z 36009KT 9999 FEW018 17/12 Q1023 NOSIG

Время: 12:40 (10:40 UTC)

Прогноз

Прогноз действительный с 09-го 06 UTC до 10-го 06 UTC
Ветер 8 Узел от северно-северо-западный
Видимость 10 км и более
небольшая облачность на высоте 1500 фута
Вероятность 30%
С 09-го 22 UTC до 10-го 06 UTC
Рассеянная облачность на высоте 400 фута

TAF: ENZV 0906/1006 34008KT 9999 FEW015 PROB30 0922/1006 BKN004

Метеонаблюдения и прогнозы для более 4000 аэропортов (сводки METAR и TAF).

Имеющиеся станции представлены на карте желтыми и красными точками.

Чтобы увидеть название станции, наведите на нее мышь.

Затем щелкните, чтобы увидеть метеонаблюдения и метеопрогнозы.

Управление картой: чтобы увеличить масштаб, щелкните зеленые кнопки с черным крестиком; чтобы уменьшить масштаб, щелкните зеленую кнопку с тире; для просмотра соседних карт щелкайте зеленые стрелки.


METAR-TAF: